createdAt,value
2018-05-07T00:01:28.704Z,99.90
2018-05-07T00:03:56.626Z,99.90
2018-05-07T00:06:24.487Z,99.90
2018-05-07T00:08:51.965Z,99.90
2018-05-07T00:11:19.469Z,99.90
2018-05-07T00:13:46.983Z,99.90
2018-05-07T00:16:15.263Z,99.90
2018-05-07T00:18:43.490Z,99.90
2018-05-07T00:21:11.035Z,99.90
2018-05-07T00:23:38.541Z,99.90
2018-05-07T00:26:06.848Z,99.90
2018-05-07T00:28:34.357Z,99.90
2018-05-07T00:31:01.866Z,99.90
2018-05-07T00:33:30.157Z,99.90
2018-05-07T00:35:58.460Z,99.90
2018-05-07T00:38:25.912Z,99.90
2018-05-07T00:40:54.356Z,99.90
2018-05-07T00:43:22.562Z,99.90
2018-05-07T00:45:50.044Z,99.90
2018-05-07T00:48:17.576Z,99.90
2018-05-07T00:50:45.049Z,99.90
2018-05-07T00:53:12.575Z,99.90
2018-05-07T00:55:40.101Z,99.90
2018-05-07T00:58:07.881Z,99.90
2018-05-07T01:00:35.404Z,99.90
2018-05-07T01:03:03.658Z,99.90
2018-05-07T01:05:31.269Z,99.90
2018-05-07T01:07:59.553Z,99.90
2018-05-07T01:10:27.027Z,99.90
2018-05-07T01:12:54.554Z,99.90
2018-05-07T01:15:22.095Z,99.90
2018-05-07T01:17:49.604Z,99.90
2018-05-07T01:20:17.117Z,99.90
2018-05-07T01:22:44.620Z,99.90
2018-05-07T01:25:12.149Z,99.90
2018-05-07T01:27:39.671Z,99.90
2018-05-07T01:30:07.197Z,99.90
2018-05-07T01:32:34.694Z,99.90
2018-05-07T01:35:02.207Z,99.90
2018-05-07T01:37:30.315Z,99.90
2018-05-07T01:39:58.591Z,99.90
2018-05-07T01:42:26.841Z,99.90
2018-05-07T01:44:54.313Z,99.90
2018-05-07T01:47:22.593Z,99.90
2018-05-07T01:49:50.840Z,99.90
2018-05-07T01:52:18.366Z,99.90
2018-05-07T01:54:45.841Z,99.90
2018-05-07T01:57:13.351Z,99.90
2018-05-07T01:59:40.834Z,99.90
2018-05-07T02:02:08.320Z,99.90
2018-05-07T02:04:35.864Z,99.90
2018-05-07T02:07:03.384Z,99.90
2018-05-07T02:09:30.924Z,99.90
2018-05-07T02:11:59.160Z,99.90
2018-05-07T02:14:26.673Z,99.90
2018-05-07T02:16:54.161Z,99.90
2018-05-07T02:19:21.668Z,99.90
2018-05-07T02:21:49.157Z,99.90
2018-05-07T02:24:17.247Z,99.90
2018-05-07T02:26:44.738Z,99.90
2018-05-07T02:29:13.030Z,99.90
2018-05-07T02:31:41.316Z,99.90
2018-05-07T02:34:08.828Z,99.90
2018-05-07T02:36:36.316Z,99.90
2018-05-07T02:39:04.599Z,99.90
2018-05-07T02:41:32.875Z,99.90
2018-05-07T02:44:00.394Z,99.90
2018-05-07T02:46:27.877Z,99.90
2018-05-07T02:48:55.405Z,99.90
2018-05-07T02:51:22.877Z,99.90
2018-05-07T02:53:50.390Z,99.90
2018-05-07T02:56:17.861Z,99.90
2018-05-07T02:58:45.377Z,99.90
2018-05-07T03:01:12.829Z,99.90
2018-05-07T03:03:40.345Z,99.90
2018-05-07T03:06:07.858Z,99.90
2018-05-07T03:08:35.353Z,99.90
2018-05-07T03:11:02.863Z,99.90
2018-05-07T03:13:30.377Z,99.90
2018-05-07T03:15:57.852Z,99.90
2018-05-07T03:18:26.129Z,99.90
2018-05-07T03:20:54.390Z,99.90
2018-05-07T03:23:21.896Z,99.90
2018-05-07T03:25:49.393Z,99.90
2018-05-07T03:28:16.866Z,99.90
2018-05-07T03:30:44.385Z,99.90
2018-05-07T03:33:11.824Z,99.90
2018-05-07T03:35:39.380Z,99.90
2018-05-07T03:38:06.855Z,99.90
2018-05-07T03:40:34.398Z,99.90
2018-05-07T03:43:02.638Z,99.90
2018-05-07T03:45:30.112Z,99.90
2018-05-07T03:47:57.662Z,99.90
2018-05-07T03:50:25.154Z,99.90
2018-05-07T03:52:52.660Z,99.90
2018-05-07T03:55:20.150Z,99.90
2018-05-07T03:57:47.662Z,99.90
2018-05-07T04:00:15.909Z,99.90
2018-05-07T04:02:43.443Z,99.90
2018-05-07T04:05:10.928Z,99.90
2018-05-07T04:07:38.437Z,99.90
2018-05-07T04:10:05.940Z,99.90
2018-05-07T04:12:33.458Z,99.90
2018-05-07T04:15:00.907Z,99.90
2018-05-07T04:17:40.377Z,99.90
2018-05-07T04:20:19.730Z,99.90
2018-05-07T04:22:58.981Z,99.90
2018-05-07T04:25:26.492Z,99.90
2018-05-07T04:27:53.960Z,99.90
2018-05-07T04:30:22.233Z,99.90
2018-05-07T04:32:49.746Z,99.90
2018-05-07T04:35:17.247Z,99.90
2018-05-07T04:37:44.723Z,99.90
2018-05-07T04:40:12.218Z,99.90
2018-05-07T04:42:39.736Z,99.90
2018-05-07T04:45:07.249Z,99.90
2018-05-07T04:47:34.754Z,99.90
2018-05-07T04:50:02.225Z,99.90
2018-05-07T04:52:30.501Z,99.90
2018-05-07T04:54:58.922Z,99.90
2018-05-07T04:57:27.154Z,99.90
2018-05-07T04:59:54.655Z,99.90
2018-05-07T05:02:22.170Z,99.90
2018-05-07T05:04:50.430Z,99.90
2018-05-07T05:07:18.024Z,99.90
2018-05-07T05:09:45.440Z,99.90
2018-05-07T05:12:12.973Z,99.90
2018-05-07T05:14:40.570Z,99.90
2018-05-07T05:17:08.849Z,99.90
2018-05-07T05:19:37.111Z,99.90
2018-05-07T05:22:04.639Z,99.90
2018-05-07T05:24:32.136Z,99.90
2018-05-07T05:27:00.453Z,99.90
2018-05-07T05:29:27.959Z,99.90
2018-05-07T05:31:56.284Z,99.90
2018-05-07T05:34:23.991Z,99.90
2018-05-07T05:36:51.537Z,99.90
2018-05-07T05:39:19.054Z,99.90
2018-05-07T05:41:47.311Z,99.90
2018-05-07T05:44:14.869Z,99.90
2018-05-07T05:46:42.544Z,99.90
2018-05-07T05:49:10.084Z,99.90
2018-05-07T05:51:38.361Z,99.90
2018-05-07T05:54:05.922Z,99.90
2018-05-07T05:56:33.444Z,99.90
2018-05-07T05:59:00.967Z,99.90
2018-05-07T06:01:28.532Z,99.90
2018-05-07T06:03:56.073Z,99.90
2018-05-07T06:06:23.562Z,99.90
2018-05-07T06:08:51.065Z,99.90
2018-05-07T06:11:18.610Z,99.90
2018-05-07T06:13:46.847Z,99.90
2018-05-07T06:16:15.189Z,99.90
2018-05-07T06:18:42.812Z,99.90
2018-05-07T06:21:11.152Z,99.90
2018-05-07T06:23:38.699Z,99.90
2018-05-07T06:26:06.252Z,99.90
2018-05-07T06:28:33.784Z,99.90
2018-05-07T06:31:08.984Z,99.90
2018-05-07T06:33:36.630Z,99.90
2018-05-07T06:36:04.167Z,99.90
2018-05-07T06:38:31.733Z,99.90
2018-05-07T06:40:59.246Z,99.30
2018-05-07T06:43:27.573Z,98.70
2018-05-07T06:45:55.288Z,98.70
2018-05-07T06:48:22.728Z,99.00
2018-05-07T06:50:51.918Z,96.40
2018-05-07T06:53:19.455Z,96.40
2018-05-07T06:55:47.012Z,96.70
2018-05-07T06:58:14.578Z,95.60
2018-05-07T07:00:42.104Z,95.00
2018-05-07T07:03:09.655Z,95.40
2018-05-07T07:05:38.163Z,95.30
2018-05-07T07:08:05.731Z,95.20
2018-05-07T07:10:33.240Z,95.20
2018-05-07T07:13:00.761Z,94.50
2018-05-07T07:15:28.298Z,94.30
2018-05-07T07:17:55.885Z,93.60
2018-05-07T07:20:24.239Z,94.20
2018-05-07T07:22:51.846Z,94.30
2018-05-07T07:25:19.450Z,94.00
2018-05-07T07:27:47.444Z,95.20
2018-05-07T07:30:16.005Z,96.40
2018-05-07T07:32:43.878Z,96.30
2018-05-07T07:35:11.397Z,95.20
2018-05-07T07:37:39.016Z,94.70
2018-05-07T07:40:07.355Z,95.90
2018-05-07T07:42:35.130Z,95.90
2018-05-07T07:45:02.730Z,95.80
2018-05-07T07:47:30.290Z,94.50
2018-05-07T07:49:58.333Z,93.70
2018-05-07T07:52:25.963Z,94.60
2018-05-07T07:54:54.225Z,95.60
2018-05-07T07:57:21.767Z,95.80
2018-05-07T07:59:49.291Z,96.00
2018-05-07T08:02:17.572Z,95.30
2018-05-07T08:04:45.146Z,95.30
2018-05-07T08:07:12.656Z,96.40
2018-05-07T08:09:40.824Z,95.50
2018-05-07T08:12:08.407Z,95.80
2018-05-07T08:14:35.911Z,96.60
2018-05-07T08:17:03.424Z,95.80
2018-05-07T08:19:30.951Z,96.40
2018-05-07T08:21:58.611Z,95.50
2018-05-07T08:24:26.117Z,95.50
2018-05-07T08:26:53.646Z,94.20
2018-05-07T08:29:21.213Z,94.20
2018-05-07T08:31:48.751Z,94.70
2018-05-07T08:34:16.341Z,94.30
2018-05-07T08:36:43.995Z,93.60
2018-05-07T08:39:11.446Z,92.90
2018-05-07T08:41:39.740Z,93.30
2018-05-07T08:44:07.241Z,93.30
2018-05-07T08:46:34.763Z,93.80
2018-05-07T08:49:02.274Z,90.70
2018-05-07T08:51:30.249Z,89.80
2018-05-07T08:53:58.539Z,89.50
2018-05-07T08:56:26.808Z,90.10
2018-05-07T08:58:55.083Z,86.50
2018-05-07T09:01:23.370Z,89.00
2018-05-07T09:03:50.889Z,88.90
2018-05-07T09:06:18.395Z,90.30
2018-05-07T09:08:45.969Z,90.10
2018-05-07T09:11:13.488Z,90.50
2018-05-07T09:13:41.830Z,87.00
2018-05-07T09:16:09.349Z,87.00
2018-05-07T09:18:36.848Z,85.90
2018-05-07T09:21:04.387Z,86.50
2018-05-07T09:23:32.268Z,89.50
2018-05-07T09:25:59.782Z,88.90
2018-05-07T09:28:27.328Z,82.80
2018-05-07T09:30:54.838Z,82.50
2018-05-07T09:33:22.487Z,85.00
2018-05-07T09:35:49.951Z,83.50
2018-05-07T09:38:18.318Z,84.50
2018-05-07T09:40:45.859Z,83.70
2018-05-07T09:43:13.438Z,82.70
2018-05-07T09:45:40.962Z,85.90
2018-05-07T09:48:09.087Z,83.90
2018-05-07T09:50:36.651Z,82.60
2018-05-07T09:53:04.778Z,84.30
2018-05-07T09:55:32.308Z,87.20
2018-05-07T09:58:02.644Z,74.30
2018-05-07T10:00:36.089Z,77.20
2018-05-07T10:03:03.668Z,71.50
2018-05-07T10:05:31.257Z,72.20
2018-05-07T10:07:58.828Z,68.00
2018-05-07T10:10:26.354Z,70.50
2018-05-07T10:12:53.881Z,65.80
2018-05-07T10:15:21.397Z,64.70
2018-05-07T10:17:48.910Z,67.20
2018-05-07T10:20:16.477Z,70.20
2018-05-07T10:22:43.999Z,66.90
2018-05-07T10:25:11.541Z,67.00
2018-05-07T10:27:39.077Z,63.10
2018-05-07T10:30:06.631Z,65.80
2018-05-07T10:32:34.661Z,66.90
2018-05-07T10:35:02.250Z,64.40
2018-05-07T10:37:29.739Z,65.20
2018-05-07T10:39:57.254Z,64.10
2018-05-07T10:42:25.515Z,63.10
2018-05-07T10:44:53.809Z,67.90
2018-05-07T10:47:21.301Z,67.80
2018-05-07T10:49:48.816Z,68.90
2018-05-07T10:52:17.045Z,67.70
2018-05-07T10:54:44.561Z,65.60
2018-05-07T10:57:12.056Z,64.70
2018-05-07T10:59:39.610Z,64.50
2018-05-07T11:02:07.131Z,65.00
2018-05-07T11:04:35.550Z,66.50
2018-05-07T11:07:03.054Z,62.10
2018-05-07T11:09:31.398Z,62.20
2018-05-07T11:11:59.722Z,59.30
2018-05-07T11:14:27.276Z,59.30
2018-05-07T11:16:55.197Z,64.40
2018-05-07T11:19:22.707Z,63.20
2018-05-07T11:21:50.390Z,59.70
2018-05-07T11:24:17.915Z,58.30
2018-05-07T11:26:46.241Z,59.90
2018-05-07T11:29:13.852Z,60.20
2018-05-07T11:31:41.453Z,60.40
2018-05-07T11:34:09.821Z,58.20
2018-05-07T11:36:37.313Z,58.00
2018-05-07T11:39:05.872Z,58.90
2018-05-07T11:41:33.648Z,59.70
2018-05-07T11:44:01.259Z,61.90
2018-05-07T11:46:28.774Z,62.10
2018-05-07T11:48:56.383Z,62.80
2018-05-07T11:51:23.903Z,58.30
2018-05-07T11:53:52.890Z,59.70
2018-05-07T11:56:21.308Z,59.80
2018-05-07T11:58:48.794Z,59.60
2018-05-07T12:01:16.369Z,58.80
2018-05-07T12:03:43.934Z,61.80
2018-05-07T12:06:11.488Z,59.40
2018-05-07T12:08:40.248Z,59.80
2018-05-07T12:11:07.793Z,58.70
2018-05-07T12:13:35.383Z,60.50
2018-05-07T12:16:02.993Z,58.40
2018-05-07T12:18:30.402Z,61.90
2018-05-07T12:20:57.928Z,56.60
2018-05-07T12:23:25.482Z,59.20
2018-05-07T12:25:53.048Z,59.50
2018-05-07T12:28:20.566Z,58.80
2018-05-07T12:33:22.048Z,58.40
2018-05-07T12:35:49.589Z,57.20
